Map

Track Data

SID SEASON NUMBER BASIN SUBBASIN NAME ISO_TIME NATURE LAT LON WMO_WIND WMO_PRES WMO_AGENCY TRACK_TYPE DIST2LAND LANDFALL IFLAG USA_AGENCY USA_ATCF_ID USA_LAT USA_LON USA_RECORD USA_STATUS USA_WIND USA_PRES USA_SSHS USA_R34_NE USA_R34_SE USA_R34_SW USA_R34_NW USA_R50_NE USA_R50_SE USA_R50_SW USA_R50_NW USA_R64_NE USA_R64_SE USA_R64_SW USA_R64_NW USA_POCI USA_ROCI USA_RMW USA_EYE TOKYO_LAT TOKYO_LON TOKYO_GRADE TOKYO_WIND TOKYO_PRES TOKYO_R50_DIR TOKYO_R50_LONG TOKYO_R50_SHORT TOKYO_R30_DIR TOKYO_R30_LONG TOKYO_R30_SHORT TOKYO_LAND CMA_LAT CMA_LON CMA_CAT CMA_WIND CMA_PRES HKO_LAT HKO_LON HKO_CAT HKO_WIND HKO_PRES NEWDELHI_LAT NEWDELHI_LON NEWDELHI_GRADE NEWDELHI_WIND NEWDELHI_PRES NEWDELHI_CI NEWDELHI_DP NEWDELHI_POCI REUNION_LAT REUNION_LON REUNION_TYPE REUNION_WIND REUNION_PRES REUNION_TNUM REUNION_CI REUNION_RMW REUNION_R34_NE REUNION_R34_SE REUNION_R34_SW REUNION_R34_NW REUNION_R50_NE REUNION_R50_SE REUNION_R50_SW REUNION_R50_NW REUNION_R64_NE REUNION_R64_SE REUNION_R64_SW REUNION_R64_NW BOM_LAT BOM_LON BOM_TYPE BOM_WIND BOM_PRES BOM_TNUM BOM_CI BOM_RMW BOM_R34_NE BOM_R34_SE BOM_R34_SW BOM_R34_NW BOM_R50_NE BOM_R50_SE BOM_R50_SW BOM_R50_NW BOM_R64_NE BOM_R64_SE BOM_R64_SW BOM_R64_NW BOM_ROCI BOM_POCI BOM_EYE BOM_POS_METHOD BOM_PRES_METHOD NADI_LAT NADI_LON NADI_CAT NADI_WIND NADI_PRES WELLINGTON_LAT WELLINGTON_LON WELLINGTON_WIND WELLINGTON_PRES DS824_LAT DS824_LON DS824_STAGE DS824_WIND DS824_PRES TD9636_LAT TD9636_LON TD9636_STAGE TD9636_WIND TD9636_PRES TD9635_LAT TD9635_LON TD9635_WIND TD9635_PRES TD9635_ROCI NEUMANN_LAT NEUMANN_LON NEUMANN_CLASS NEUMANN_WIND NEUMANN_PRES MLC_LAT MLC_LON MLC_CLASS MLC_WIND MLC_PRES USA_GUST BOM_GUST BOM_GUST_PER REUNION_GUST REUNION_GUST_PER USA_SEAHGT USA_SEARAD_NE USA_SEARAD_SE USA_SEARAD_SW USA_SEARAD_NW STORM_SPEED STORM_DIR
1966249N16252 1966 68 EP MM FRANCESCA 1966-09-06 00:00:00 TS 15.7000 -107.700 25 hurdat_epa main 498 495 O________OO___ hurdat_epa EP061966 15.7000 -107.700 TD 25 -1 15.7000 -107.700 TC 25 15.7000 -107.700 2 10 293
1966249N16252 1966 68 EP MM FRANCESCA 1966-09-06 03:00:00 TS 15.9055 -108.199 main 516 515 P________PP___ EP061966 15.9102 -108.197 TD 25 -1 15.9102 -108.197 TC 25 15.8869 -108.205 2 10 292
1966249N16252 1966 68 EP MM FRANCESCA 1966-09-06 06:00:00 TS 16.0937 -108.702 25 hurdat_epa main 538 538 O________OP___ hurdat_epa EP061966 16.1000 -108.700 TD 25 -1 16.1000 -108.700 TC 25 16.0685 -108.709 2 10 290
1966249N16252 1966 68 EP MM FRANCESCA 1966-09-06 09:00:00 TS 16.2541 -109.208 main 561 561 P________PP___ EP061966 16.2574 -109.208 TD 35 0 16.2574 -109.208 TC 35 16.2409 -109.208 2 10 288
1966249N16252 1966 68 EP MM FRANCESCA 1966-09-06 12:00:00 TS 16.4000 -109.700 45 hurdat_epa main 593 593 O________OO___ hurdat_epa EP061966 16.4000 -109.700 TS 45 0 16.4000 -109.700 TC 45 16.4000 -109.700 2 10 288
1966249N16252 1966 68 EP MM FRANCESCA 1966-09-06 15:00:00 TS 16.5544 -110.157 main 623 623 P________PP___ EP061966 16.5573 -110.150 TS 60 0 16.5573 -110.150 TC 60 16.5430 -110.182 2 9 289
1966249N16252 1966 68 EP MM FRANCESCA 1966-09-06 18:00:00 TS 16.6944 -110.612 75 hurdat_epa main 652 652 O________OP___ hurdat_epa EP061966 16.7000 -110.600 HU 75 1 16.7000 -110.600 TC 75 16.6720 -110.658 2 9 285
1966249N16252 1966 68 EP MM FRANCESCA 1966-09-06 21:00:00 TS 16.8040 -111.106 main 690 686 P________PP___ EP061966 16.8075 -111.100 HU 75 1 16.8075 -111.100 TC 75 16.7899 -111.129 2 10 282
1966249N16252 1966 68 EP MM FRANCESCA 1966-09-07 00:00:00 TS 16.9000 -111.600 75 hurdat_epa main 691 686 O________OO___ hurdat_epa EP061966 16.9000 -111.600 HU 75 1 16.9000 -111.600 TC 75 16.9000 -111.600 4 9 282
1966249N16252 1966 68 EP MM FRANCESCA 1966-09-07 03:00:00 TS 17.0036 -112.053 main 695 691 P________PP___ EP061966 16.9998 -112.050 HU 75 1 16.9998 -112.050 TC 75 17.0189 -112.067 4 9 283
1966249N16252 1966 68 EP MM FRANCESCA 1966-09-07 06:00:00 TS 17.1059 -112.507 75 hurdat_epa main 699 697 O________OP___ hurdat_epa EP061966 17.1000 -112.500 HU 75 1 17.1000 -112.500 TC 75 17.1293 -112.535 4 9 283
1966249N16252 1966 68 EP MM FRANCESCA 1966-09-07 09:00:00 TS 17.2110 -112.996 main 710 709 P________PP___ EP061966 17.2074 -112.992 HU 75 1 17.2074 -112.992 TC 75 17.2251 -113.011 4 10 282
1966249N16252 1966 68 EP MM FRANCESCA 1966-09-07 12:00:00 TS 17.3000 -113.500 75 hurdat_epa main 725 725 O________OO___ hurdat_epa EP061966 17.3000 -113.500 HU 75 1 17.3000 -113.500 TC 75 17.3000 -113.500 4 10 279
1966249N16252 1966 68 EP MM FRANCESCA 1966-09-07 15:00:00 TS 17.3580 -114.003 main 743 743 P________PP___ EP061966 17.3648 -113.993 HU 75 1 17.3648 -113.993 TC 75 17.3306 -114.044 4 10 275
1966249N16252 1966 68 EP MM FRANCESCA 1966-09-07 18:00:00 TS 17.3886 -114.519 75 hurdat_epa main 773 773 O________OP___ hurdat_epa EP061966 17.4000 -114.500 HU 75 1 17.4000 -114.500 TC 75 17.3430 -114.596 4 10 271
1966249N16252 1966 68 EP MM FRANCESCA 1966-09-07 21:00:00 TS 17.3799 -115.089 main 813 813 P________PP___ EP061966 17.3852 -115.080 HU 75 1 17.3852 -115.080 TC 75 17.3588 -115.125 4 10 271
1966249N16252 1966 68 EP MM FRANCESCA 1966-09-08 00:00:00 TS 17.4000 -115.600 75 hurdat_epa main 848 848 O________OO___ hurdat_epa EP061966 17.4000 -115.600 HU 75 1 17.4000 -115.600 TC 75 17.4000 -115.600 4 8 281
1966249N16252 1966 68 EP MM FRANCESCA 1966-09-08 03:00:00 TS 17.5316 -115.929 main 862 861 P________PP___ EP061966 17.5347 -115.930 HU 75 1 17.5347 -115.930 TC 75 17.5190 -115.925 4 6 297
1966249N16252 1966 68 EP MM FRANCESCA 1966-09-08 06:00:00 TS 17.6925 -116.201 75 hurdat_epa main 869 869 O________OP___ hurdat_epa EP061966 17.7000 -116.200 HU 75 1 17.7000 -116.200 TC 75 17.6627 -116.205 4 6 298
1966249N16252 1966 68 EP MM FRANCESCA 1966-09-08 09:00:00 TS 17.8177 -116.493 main 885 885 P________PP___ EP061966 17.8221 -116.490 HU 75 1 17.8221 -116.490 TC 75 17.8001 -116.507 4 7 287
1966249N16252 1966 68 EP MM FRANCESCA 1966-09-08 12:00:00 TS 17.9000 -116.900 75 hurdat_epa main 907 907 O________OO___ hurdat_epa EP061966 17.9000 -116.900 HU 75 1 17.9000 -116.900 TC 75 17.9000 -116.900 4 10 276
1966249N16252 1966 68 EP MM FRANCESCA 1966-09-08 15:00:00 TS 17.9235 -117.536 main 943 943 P________PP___ EP061966 17.9228 -117.555 HU 75 1 17.9228 -117.555 TC 75 17.9265 -117.458 4 13 270
1966249N16252 1966 68 EP MM FRANCESCA 1966-09-08 18:00:00 TS 17.9020 -118.263 75 hurdat_epa main 994 994 O________OP___ hurdat_epa EP061966 17.9000 -118.300 HU 75 1 17.9000 -118.300 TC 75 17.9102 -118.116 4 13 267
1966249N16252 1966 68 EP MM FRANCESCA 1966-09-08 21:00:00 TS 17.8583 -118.916 main 1035 1035 P________PP___ EP061966 17.8570 -118.935 HU 75 1 17.8570 -118.935 TC 75 17.8637 -118.840 4 13 265
1966249N16252 1966 68 EP MM FRANCESCA 1966-09-09 00:00:00 TS 17.8000 -119.600 75 hurdat_epa main 1094 1094 O________OO___ hurdat_epa EP061966 17.8000 -119.600 HU 75 1 17.8000 -119.600 TC 75 17.8000 -119.600 4 14 266
1966249N16252 1966 68 EP MM FRANCESCA 1966-09-09 03:00:00 TS 17.7588 -120.382 main 1154 1154 P________PP___ EP061966 17.7575 -120.385 HU 75 1 17.7575 -120.385 TC 75 17.7640 -120.370 4 15 266
1966249N16252 1966 68 EP MM FRANCESCA 1966-09-09 06:00:00 TS 17.7021 -121.193 75 hurdat_epa main 1223 1223 O________OP___ hurdat_epa EP061966 17.7000 -121.200 HU 75 1 17.7000 -121.200 TC 75 17.7104 -121.164 4 15 265
1966249N16252 1966 68 EP MM FRANCESCA 1966-09-09 09:00:00 TS 17.6231 -121.968 main 1295 1295 P________PP___ EP061966 17.6223 -121.972 HU 75 1 17.6223 -121.972 TC 75 17.6265 -121.951 4 15 262
1966249N16252 1966 68 EP MM FRANCESCA 1966-09-09 12:00:00 TS 17.5000 -122.700 75 hurdat_epa main 1359 1359 O________OO___ hurdat_epa EP061966 17.5000 -122.700 HU 75 1 17.5000 -122.700 TC 75 17.5000 -122.700 2 14 257
1966249N16252 1966 68 EP MM FRANCESCA 1966-09-09 15:00:00 TS 17.3172 -123.377 main 1431 1431 P________PP___ EP061966 17.3222 -123.372 HU 60 0 17.3222 -123.372 TC 60 17.2970 -123.393 2 13 252
1966249N16252 1966 68 EP MM FRANCESCA 1966-09-09 18:00:00 TS 17.0913 -124.008 45 hurdat_epa main 1496 1496 O________OP___ hurdat_epa EP061966 17.1000 -124.000 TS 45 0 17.1000 -124.000 TC 45 17.0566 -124.041 2 13 248
1966249N16252 1966 68 EP MM FRANCESCA 1966-09-09 21:00:00 TS 16.8305 -124.627 main 1565 1565 P________PP___ EP061966 16.8349 -124.623 TS 45 0 16.8349 -124.623 TC 45 16.8129 -124.643 2 12 247
1966249N16252 1966 68 EP MM FRANCESCA 1966-09-10 00:00:00 TS 16.6000 -125.200 45 hurdat_epa main 1623 1623 O________OO___ hurdat_epa EP061966 16.6000 -125.200 TS 45 0 16.6000 -125.200 TC 45 16.6000 -125.200 2 11 252
1966249N16252 1966 68 EP MM FRANCESCA 1966-09-10 03:00:00 TS 16.4794 -125.723 main 1666 1666 P________PP___ EP061966 16.4773 -125.722 TS 45 0 16.4773 -125.722 TC 45 16.4877 -125.725 2 10 258
1966249N16252 1966 68 EP MM FRANCESCA 1966-09-10 06:00:00 TS 16.4013 -126.202 45 hurdat_epa main 1708 1708 O________OP___ hurdat_epa EP061966 16.4000 -126.200 TS 45 0 16.4000 -126.200 TC 45 16.4066 -126.208 2 9 260
1966249N16252 1966 68 EP MM FRANCESCA 1966-09-10 09:00:00 TS 16.3163 -126.658 main 1752 1752 P________PP___ EP061966 16.3149 -126.657 TS 45 0 16.3149 -126.657 TC 45 16.3222 -126.663 2 9 257
1966249N16252 1966 68 EP MM FRANCESCA 1966-09-10 12:00:00 TS 16.2000 -127.100 45 hurdat_epa main 1789 1789 O________OO___ hurdat_epa EP061966 16.2000 -127.100 TS 45 0 16.2000 -127.100 TC 45 16.2000 -127.100 2 9 251
1966249N16252 1966 68 EP MM FRANCESCA 1966-09-10 15:00:00 TS 16.0234 -127.564 main 1841 1841 P________PP___ EP061966 16.0299 -127.557 TS 45 0 16.0299 -127.557 TC 45 15.9973 -127.593 2 10 245
1966249N16252 1966 68 EP MM FRANCESCA 1966-09-10 18:00:00 TS 15.7906 -128.013 45 hurdat_epa main 1887 1887 O________OP___ hurdat_epa EP061966 15.8000 -128.000 TS 45 0 15.8000 -128.000 TC 45 15.7528 -128.063 2 10 239
1966249N16252 1966 68 EP MM FRANCESCA 1966-09-10 21:00:00 TS 15.5084 -128.458 main 1948 1948 P________PP___ EP061966 15.5151 -128.453 TS 45 0 15.5151 -128.453 TC 45 15.4818 -128.477 2 10 232
1966249N16252 1966 68 EP MM FRANCESCA 1966-09-11 00:00:00 TS 15.2000 -128.800 45 hurdat_epa main 1994 1994 O________OO___ hurdat_epa EP061966 15.2000 -128.800 TS 45 0 15.2000 -128.800 TC 45 15.2000 -128.800 2 8 218
1966249N16252 1966 68 EP MM FRANCESCA 1966-09-11 03:00:00 TS 14.8929 -128.950 main 2033 2033 P________PP___ EP061966 14.8924 -128.945 TS 45 0 14.8924 -128.945 TC 45 14.8951 -128.972 2 6 199
1966249N16252 1966 68 EP MM FRANCESCA 1966-09-11 06:00:00 TS 14.5979 -129.012 45 hurdat_epa main 2058 2058 O________OP___ hurdat_epa EP061966 14.6000 -129.000 TS 45 0 14.6000 -129.000 TC 45 14.5893 -129.059 2 6 193
1966249N16252 1966 68 EP MM FRANCESCA 1966-09-11 09:00:00 TS 14.3248 -129.091 main 2090 2090 P________PP___ EP061966 14.3275 -129.085 TS 45 0 14.3275 -129.085 TC 45 14.3140 -129.116 2 5 200
1966249N16252 1966 68 EP MM FRANCESCA 1966-09-11 12:00:00 TS 14.1000 -129.200 45 hurdat_epa main 2114 2114 O________OO___ hurdat_epa EP061966 14.1000 -129.200 TS 45 0 14.1000 -129.200 TC 45 14.1000 -129.200 2 5 214
1966249N16252 1966 68 EP MM FRANCESCA 1966-09-11 15:00:00 TS 13.9105 -129.378 main 2145 2145 P________PP___ EP061966 13.9050 -129.378 TS 45 0 13.9050 -129.378 TC 45 13.9325 -129.381 2 5 233
1966249N16252 1966 68 EP MM FRANCESCA 1966-09-11 18:00:00 TS 13.8070 -129.600 45 hurdat_epa main 2168 2168 O________OP___ hurdat_epa EP061966 13.8000 -129.600 TS 45 0 13.8000 -129.600 TC 45 13.8350 -129.598 2 5 256
1966249N16252 1966 68 EP MM FRANCESCA 1966-09-11 21:00:00 TS 13.7960 -129.836 main 2182 2182 P________PP___ EP061966 13.7900 -129.835 TS 45 0 13.7900 -129.835 TC 45 13.8200 -129.841 2 5 281
1966249N16252 1966 68 EP MM FRANCESCA 1966-09-12 00:00:00 TS 13.9000 -130.100 45 hurdat_epa main 2196 2195 O________OO___ hurdat_epa EP061966 13.9000 -130.100 TS 45 0 13.9000 -130.100 TC 45 13.9000 -130.100 2 6 299
1966249N16252 1966 68 EP MM FRANCESCA 1966-09-12 03:00:00 TS 14.1039 -130.396 main 2202 2201 P________PP___ EP061966 14.1125 -130.400 TS 45 0 14.1125 -130.400 TC 45 14.0695 -130.380 2 8 310
1966249N16252 1966 68 EP MM FRANCESCA 1966-09-12 06:00:00 TS 14.3860 -130.694 45 hurdat_epa main 2201 2193 O________OP___ hurdat_epa EP061966 14.4000 -130.700 TS 45 0 14.4000 -130.700 TC 45 14.3302 -130.672 2 8 316
1966249N16252 1966 68 EP MM FRANCESCA 1966-09-12 09:00:00 TS 14.6781 -130.963 main 2200 2192 P________PP___ EP061966 14.6850 -130.965 TS 45 0 14.6850 -130.965 TC 45 14.6508 -130.952 2 8 321
1966249N16252 1966 68 EP MM FRANCESCA 1966-09-12 12:00:00 TS 15.0000 -131.200 45 hurdat_epa main 2193 2185 O________OO___ hurdat_epa EP061966 15.0000 -131.200 TS 45 0 15.0000 -131.200 TC 45 15.0000 -131.200 2 8 326
1966249N16252 1966 68 EP MM FRANCESCA 1966-09-12 15:00:00 TS 15.3340 -131.422 main 2186 2172 P________PP___ EP061966 15.3425 -131.423 TS 45 0 15.3425 -131.423 TC 45 15.2999 -131.418 2 8 331
1966249N16252 1966 68 EP MM FRANCESCA 1966-09-12 18:00:00 TS 15.6850 -131.599 45 hurdat_epa main 2172 2159 O________OP___ hurdat_epa EP061966 15.7000 -131.600 TS 45 0 15.7000 -131.600 TC 45 15.6249 -131.597 2 7 337
1966249N16252 1966 68 EP MM FRANCESCA 1966-09-12 21:00:00 TS 16.0135 -131.724 main 2159 2138 P________PP___ EP061966 16.0200 -131.723 TS 45 0 16.0200 -131.723 TC 45 15.9875 -131.728 2 7 345
1966249N16252 1966 68 EP MM FRANCESCA 1966-09-13 00:00:00 TS 16.4000 -131.800 45 hurdat_epa main 2138 2112 O________OO___ hurdat_epa EP061966 16.4000 -131.800 TS 45 0 16.4000 -131.800 TC 45 16.4000 -131.800 2 9 351
1966249N16252 1966 68 EP MM FRANCESCA 1966-09-13 03:00:00 TS 16.9250 -131.879 main 2112 2071 P________PP___ EP061966 16.9275 -131.887 TS 45 0 16.9275 -131.887 TC 45 16.9151 -131.844 2 11 356
1966249N16252 1966 68 EP MM FRANCESCA 1966-09-13 06:00:00 TS 17.4944 -131.885 45 hurdat_epa main 2071 2030 O________OP___ hurdat_epa EP061966 17.5000 -131.900 TS 45 0 17.5000 -131.900 TC 45 17.4722 -131.828 2 11 5
1966249N16252 1966 68 EP MM FRANCESCA 1966-09-13 09:00:00 TS 18.0336 -131.786 main 2030 1981 P________PP___ EP061966 18.0375 -131.795 TS 45 0 18.0375 -131.795 TC 45 18.0182 -131.747 2 10 15
1966249N16252 1966 68 EP MM FRANCESCA 1966-09-13 12:00:00 TS 18.5000 -131.600 45 hurdat_epa main 1981 1944 O________OO___ hurdat_epa EP061966 18.5000 -131.600 TS 45 0 18.5000 -131.600 TC 45 18.5000 -131.600 2 9 25
1966249N16252 1966 68 EP MM FRANCESCA 1966-09-13 15:00:00 TS 18.8377 -131.381 main 1944 1899 P________PP___ EP061966 18.8375 -131.372 TS 45 0 18.8375 -131.372 TC 45 18.8386 -131.414 2 8 37
1966249N16252 1966 68 EP MM FRANCESCA 1966-09-13 18:00:00 TS 19.1019 -131.112 45 hurdat_epa main 1899 1861 O________OP___ hurdat_epa EP061966 19.1000 -131.100 TS 45 0 19.1000 -131.100 TC 45 19.1097 -131.162 2 7 46
1966249N16252 1966 68 EP MM FRANCESCA 1966-09-13 21:00:00 TS 19.3441 -130.829 main 1861 1816 P________PP___ EP061966 19.3424 -130.822 TS 45 0 19.3424 -130.822 TC 45 19.3510 -130.854 2 8 49
1966249N16252 1966 68 EP MM FRANCESCA 1966-09-14 00:00:00 TS 19.6000 -130.500 45 hurdat_epa main 1816 1763 O________OO___ hurdat_epa EP061966 19.6000 -130.500 TS 45 0 19.6000 -130.500 TC 45 19.6000 -130.500 2 9 48
1966249N16252 1966 68 EP MM FRANCESCA 1966-09-14 03:00:00 TS 19.9426 -130.123 main 1763 1704 P________PP___ EP061966 19.9425 -130.123 TS 45 0 19.9425 -130.123 TC 45 19.9431 -130.127 2 10 47
1966249N16252 1966 68 EP MM FRANCESCA 1966-09-14 06:00:00 TS 20.2990 -129.702 45 hurdat_epa main 1704 1651 O________OP___ hurdat_epa EP061966 20.3000 -129.700 TS 45 0 20.3000 -129.700 TC 45 20.2949 -129.711 2 11 50
1966249N16252 1966 68 EP MM FRANCESCA 1966-09-14 09:00:00 TS 20.6288 -129.259 main 1651 1589 P________PP___ EP061966 20.6299 -129.258 TS 45 0 20.6299 -129.258 TC 45 20.6243 -129.264 2 10 55
1966249N16252 1966 68 EP MM FRANCESCA 1966-09-14 12:00:00 TS 20.9000 -128.800 45 hurdat_epa main 1589 1542 O________OO___ hurdat_epa EP061966 20.9000 -128.800 TS 45 0 20.9000 -128.800 TC 45 20.9000 -128.800 2 10 62
1966249N16252 1966 68 EP MM FRANCESCA 1966-09-14 15:00:00 TS 21.0837 -128.344 main 1533 1492 P________PP___ EP061966 21.0798 -128.357 TS 45 0 21.0798 -128.357 TC 45 21.0993 -128.290 2 9 70
1966249N16252 1966 68 EP MM FRANCESCA 1966-09-14 18:00:00 TS 21.2082 -127.875 45 hurdat_epa main 1492 1442 O________OP___ hurdat_epa EP061966 21.2000 -127.900 TS 45 0 21.2000 -127.900 TC 45 21.2409 -127.775 2 10 76
1966249N16252 1966 68 EP MM FRANCESCA 1966-09-14 21:00:00 TS 21.3196 -127.349 main 1433 1392 P________PP___ EP061966 21.3152 -127.363 TS 45 0 21.3152 -127.363 TC 45 21.3369 -127.297 2 9 78
1966249N16252 1966 68 EP MM FRANCESCA 1966-09-15 00:00:00 TS 21.4000 -126.900 45 hurdat_epa main 1392 1369 O________OO___ hurdat_epa EP061966 21.4000 -126.900 TS 45 0 21.4000 -126.900 TC 45 21.4000 -126.900 6 7 78
1966249N16252 1966 68 EP MM FRANCESCA 1966-09-15 03:00:00 TS 21.4632 -126.644 main 1360 1351 P________PP___ EP061966 21.4648 -126.647 TS 35 0 21.4648 -126.647 TC 35 21.4570 -126.630 6 4 76
1966249N16252 1966 68 EP MM FRANCESCA 1966-09-15 06:00:00 TS 21.4973 -126.489 25 hurdat_epa main 1351 1334 O________OP___ hurdat_epa EP061966 21.5000 -126.500 TD 25 -1 21.5000 -126.500 TC 25 21.4866 -126.445 6 3 82
1966249N16252 1966 68 EP MM FRANCESCA 1966-09-15 09:00:00 TS 21.5056 -126.330 main 1334 1325 P________PP___ EP061966 21.5075 -126.335 TD 25 -1 21.5075 -126.335 TC 25 21.4979 -126.312 6 3 89
1966249N16252 1966 68 EP MM FRANCESCA 1966-09-15 12:00:00 TS 21.5000 -126.200 25 hurdat_epa main 1325 1317 O________OO___ hurdat_epa EP061966 21.5000 -126.200 TD 25 -1 21.5000 -126.200 TC 25 21.5000 -126.200 6 2 91
1966249N16252 1966 68 EP MM FRANCESCA 1966-09-15 15:00:00 TS 21.5014 -126.093 main 1317 1308 P________PP___ EP061966 21.5000 -126.100 TD 25 -1 21.5000 -126.100 TC 25 21.5071 -126.065 6 2 90
1966249N16252 1966 68 EP MM FRANCESCA 1966-09-15 18:00:00 TS 21.5015 -125.989 25 hurdat_epa main 1308 1300 O________OP___ hurdat_epa EP061966 21.5000 -126.000 TD 25 -1 21.5000 -126.000 TC 25 21.5074 -125.942 6 2 90
1966249N16252 1966 68 EP MM FRANCESCA 1966-09-15 21:00:00 TS 21.5008 -125.851 main 1300 1283 P________PP___ EP061966 21.5000 -125.858 TD 25 -1 21.5000 -125.858 TC 25 21.5040 -125.824 6 3 90
1966249N16252 1966 68 EP MM FRANCESCA 1966-09-16 00:00:00 TS 21.5000 -125.700 25 hurdat_epa main 1283 1274 O________OO___ hurdat_epa EP061966 21.5000 -125.700 TD 25 -1 21.5000 -125.700 TC 25 21.5000 -125.700 6 3 90
1966249N16252 1966 68 EP MM FRANCESCA 1966-09-16 03:00:00 TS 21.4996 -125.553 main 1274 1257 P________PP___ EP061966 21.5000 -125.550 TD 25 -1 21.5000 -125.550 TC 25 21.4979 -125.563 6 3 90
1966249N16252 1966 68 EP MM FRANCESCA 1966-09-16 06:00:00 TS 21.4995 -125.403 25 hurdat_epa main 1257 1249 O________OP___ hurdat_epa EP061966 21.5000 -125.400 TD 25 -1 21.5000 -125.400 TC 25 21.4977 -125.415 6 3 90
1966249N16252 1966 68 EP MM FRANCESCA 1966-09-16 09:00:00 TS 21.4997 -125.252 main 1249 1232 P________PP___ EP061966 21.5000 -125.250 TD 25 -1 21.5000 -125.250 TC 25 21.4986 -125.259 6 3 90
1966249N16252 1966 68 EP MM FRANCESCA 1966-09-16 12:00:00 TS 21.5000 -125.100 25 hurdat_epa main 1232 O________OO___ hurdat_epa EP061966 21.5000 -125.100 TD 25 -1 21.5000 -125.100 TC 25 21.5000 -125.100 6 3 90

About IBTrACS Database

This database is a web-friendly format of International Best Track Archive for Climate Stewardship (IBTrACS), a global best track data archive curated by NOAA dating back to 1842.

Updated: 2021-11-26